Map

Track Data

SID SEASON NUMBER BASIN SUBBASIN NAME ISO_TIME NATURE LAT LON WMO_WIND WMO_PRES WMO_AGENCY TRACK_TYPE DIST2LAND LANDFALL IFLAG USA_AGENCY USA_ATCF_ID USA_LAT USA_LON USA_RECORD USA_STATUS USA_WIND USA_PRES USA_SSHS USA_R34_NE USA_R34_SE USA_R34_SW USA_R34_NW USA_R50_NE USA_R50_SE USA_R50_SW USA_R50_NW USA_R64_NE USA_R64_SE USA_R64_SW USA_R64_NW USA_POCI USA_ROCI USA_RMW USA_EYE TOKYO_LAT TOKYO_LON TOKYO_GRADE TOKYO_WIND TOKYO_PRES TOKYO_R50_DIR TOKYO_R50_LONG TOKYO_R50_SHORT TOKYO_R30_DIR TOKYO_R30_LONG TOKYO_R30_SHORT TOKYO_LAND CMA_LAT CMA_LON CMA_CAT CMA_WIND CMA_PRES HKO_LAT HKO_LON HKO_CAT HKO_WIND HKO_PRES NEWDELHI_LAT NEWDELHI_LON NEWDELHI_GRADE NEWDELHI_WIND NEWDELHI_PRES NEWDELHI_CI NEWDELHI_DP NEWDELHI_POCI REUNION_LAT REUNION_LON REUNION_TYPE REUNION_WIND REUNION_PRES REUNION_TNUM REUNION_CI REUNION_RMW REUNION_R34_NE REUNION_R34_SE REUNION_R34_SW REUNION_R34_NW REUNION_R50_NE REUNION_R50_SE REUNION_R50_SW REUNION_R50_NW REUNION_R64_NE REUNION_R64_SE REUNION_R64_SW REUNION_R64_NW BOM_LAT BOM_LON BOM_TYPE BOM_WIND BOM_PRES BOM_TNUM BOM_CI BOM_RMW BOM_R34_NE BOM_R34_SE BOM_R34_SW BOM_R34_NW BOM_R50_NE BOM_R50_SE BOM_R50_SW BOM_R50_NW BOM_R64_NE BOM_R64_SE BOM_R64_SW BOM_R64_NW BOM_ROCI BOM_POCI BOM_EYE BOM_POS_METHOD BOM_PRES_METHOD NADI_LAT NADI_LON NADI_CAT NADI_WIND NADI_PRES WELLINGTON_LAT WELLINGTON_LON WELLINGTON_WIND WELLINGTON_PRES DS824_LAT DS824_LON DS824_STAGE DS824_WIND DS824_PRES TD9636_LAT TD9636_LON TD9636_STAGE TD9636_WIND TD9636_PRES TD9635_LAT TD9635_LON TD9635_WIND TD9635_PRES TD9635_ROCI NEUMANN_LAT NEUMANN_LON NEUMANN_CLASS NEUMANN_WIND NEUMANN_PRES MLC_LAT MLC_LON MLC_CLASS MLC_WIND MLC_PRES USA_GUST BOM_GUST BOM_GUST_PER REUNION_GUST REUNION_GUST_PER USA_SEAHGT USA_SEARAD_NE USA_SEARAD_SE USA_SEARAD_SW USA_SEARAD_NW STORM_SPEED STORM_DIR
1972307N35313 1972 121 NA NA DELTA 1972-11-01 18:00:00 SS 35.0000 -47.5000 25 1013 hurdat_atl main 1375 1372 O_____________ hurdat_atl AL191972 35.0000 -47.5000 SD 25 1013 -2 5 236
1972307N35313 1972 121 NA NA DELTA 1972-11-01 21:00:00 SS 34.8527 -47.7702 main 1377 1377 P_____________ AL191972 34.8527 -47.7702 SD 30 -2 5 234
1972307N35313 1972 121 NA NA DELTA 1972-11-02 00:00:00 SS 34.7000 -48.0000 35 hurdat_atl main 1393 1391 O_____________ hurdat_atl AL191972 34.7000 -48.0000 SS 35 -2 4 226
1972307N35313 1972 121 NA NA DELTA 1972-11-02 03:00:00 SS 34.5424 -48.1649 main 1409 1409 P_____________ AL191972 34.5424 -48.1649 SS 35 -2 4 219
1972307N35313 1972 121 NA NA DELTA 1972-11-02 06:00:00 SS 34.4000 -48.3000 35 hurdat_atl main 1418 1415 O_____________ hurdat_atl AL191972 34.4000 -48.3000 SS 35 -2 3 225
1972307N35313 1972 121 NA NA DELTA 1972-11-02 09:00:00 SS 34.3075 -48.4498 main 1426 1424 P_____________ AL191972 34.3075 -48.4498 SS 37 -2 3 231
1972307N35313 1972 121 NA NA DELTA 1972-11-02 12:00:00 SS 34.2000 -48.6000 40 1003 hurdat_atl main 1432 1432 O_____________ hurdat_atl AL191972 34.2000 -48.6000 SS 40 1003 -2 4 219
1972307N35313 1972 121 NA NA DELTA 1972-11-02 15:00:00 SS 34.0075 -48.7500 main 1450 1450 P_____________ AL191972 34.0075 -48.7500 SS 40 1002 -2 5 212
1972307N35313 1972 121 NA NA DELTA 1972-11-02 18:00:00 SS 33.8000 -48.9000 40 hurdat_atl main 1469 1469 I_____________ hurdat_atl AL191972 33.8000 -48.9000 SS 40 1002 -2 4 215
1972307N35313 1972 121 NA NA DELTA 1972-11-02 21:00:00 SS 33.6799 -49.0270 main 1478 1476 P_____________ AL191972 33.6799 -49.0270 SS 40 1001 -2 4 220
1972307N35313 1972 121 NA NA DELTA 1972-11-03 00:00:00 SS 33.5000 -49.2000 40 1001 hurdat_atl main 1496 1496 O_____________ hurdat_atl AL191972 33.5000 -49.2000 SS 40 1001 -2 7 216
1972307N35313 1972 121 NA NA DELTA 1972-11-03 03:00:00 SS 33.1302 -49.5082 main 1534 1532 P_____________ AL191972 33.1302 -49.5082 SS 40 1001 -2 9 212
1972307N35313 1972 121 NA NA DELTA 1972-11-03 06:00:00 SS 32.7000 -49.8000 40 hurdat_atl main 1573 1573 I_____________ hurdat_atl AL191972 32.7000 -49.8000 SS 40 1002 -2 8 205
1972307N35313 1972 121 NA NA DELTA 1972-11-03 09:00:00 SS 32.3649 -49.9371 main 1605 1605 P_____________ AL191972 32.3649 -49.9371 SS 40 1002 -2 7 193
1972307N35313 1972 121 NA NA DELTA 1972-11-03 12:00:00 SS 32.0000 -50.0000 40 1003 hurdat_atl main 1647 1647 O_____________ hurdat_atl AL191972 32.0000 -50.0000 SS 40 1003 -2 9 189
1972307N35313 1972 121 NA NA DELTA 1972-11-03 15:00:00 SS 31.5224 -50.0955 main 1701 1701 P_____________ AL191972 31.5224 -50.0955 SS 40 1003 -2 10 185
1972307N35313 1972 121 NA NA DELTA 1972-11-03 18:00:00 SS 31.0000 -50.1000 40 hurdat_atl main 1756 1756 I_____________ hurdat_atl AL191972 31.0000 -50.1000 SS 40 1003 -2 11 175
1972307N35313 1972 121 NA NA DELTA 1972-11-03 21:00:00 SS 30.4397 -49.9896 main 1824 1824 P_____________ AL191972 30.4397 -49.9896 SS 40 1003 -2 11 161
1972307N35313 1972 121 NA NA DELTA 1972-11-04 00:00:00 SS 30.0000 -49.7000 40 1003 hurdat_atl main 1872 1872 O_____________ hurdat_atl AL191972 30.0000 -49.7000 SS 40 1003 -2 9 131
1972307N35313 1972 121 NA NA DELTA 1972-11-04 03:00:00 SS 29.8329 -49.1954 main 1902 1902 P_____________ AL191972 29.8329 -49.1954 SS 40 1003 -2 10 102
1972307N35313 1972 121 NA NA DELTA 1972-11-04 06:00:00 SS 29.8000 -48.6000 40 hurdat_atl main 1912 1912 I_____________ hurdat_atl AL191972 29.8000 -48.6000 SS 40 1004 -2 10 96
1972307N35313 1972 121 NA NA DELTA 1972-11-04 09:00:00 SS 29.7275 -48.0700 main 1932 1932 P_____________ AL191972 29.7275 -48.0700 SS 37 1004 -2 9 97
1972307N35313 1972 121 NA NA DELTA 1972-11-04 12:00:00 SS 29.7000 -47.6000 35 1005 hurdat_atl main 1942 1942 O_____________ hurdat_atl AL191972 29.7000 -47.6000 SS 35 1005 -2 7 91
1972307N35313 1972 121 NA NA DELTA 1972-11-04 15:00:00 SS 29.7198 -47.2200 main 1951 1943 P_____________ AL191972 29.7198 -47.2200 SS 35 1005 -2 6 81
1972307N35313 1972 121 NA NA DELTA 1972-11-04 18:00:00 SS 29.8000 -46.9000 35 hurdat_atl main 1947 1939 I_____________ hurdat_atl AL191972 29.8000 -46.9000 SS 35 1005 -2 6 67
1972307N35313 1972 121 NA NA DELTA 1972-11-04 21:00:00 SS 29.9498 -46.6001 main 1944 1928 P_____________ AL191972 29.9498 -46.6001 SS 32 1005 -2 6 60
1972307N35313 1972 121 NA NA DELTA 1972-11-05 00:00:00 SS 30.1000 -46.3000 30 1006 hurdat_atl main 1930 1925 O_____________ hurdat_atl AL191972 30.1000 -46.3000 SD 30 1006 -2 6 69
1972307N35313 1972 121 NA NA DELTA 1972-11-05 03:00:00 SS 30.1650 -45.9498 main 1930 1930 P_____________ AL191972 30.1650 -45.9498 SD 30 1006 -2 6 81
1972307N35313 1972 121 NA NA DELTA 1972-11-05 06:00:00 SS 30.2000 -45.6000 30 hurdat_atl main 1939 1934 I_____________ hurdat_atl AL191972 30.2000 -45.6000 SD 30 1007 -2 5 80
1972307N35313 1972 121 NA NA DELTA 1972-11-05 09:00:00 SS 30.2571 -45.3225 main 1937 1937 P_____________ AL191972 30.2571 -45.3225 SD 30 1007 -2 5 79
1972307N35313 1972 121 NA NA DELTA 1972-11-05 12:00:00 SS 30.3000 -45.0000 30 1008 hurdat_atl main 1946 1946 O_____________ hurdat_atl AL191972 30.3000 -45.0000 SD 30 1008 -2 7 86
1972307N35313 1972 121 NA NA DELTA 1972-11-05 15:00:00 SS 30.3076 -44.5299 main 1962 1962 P_____________ AL191972 30.3076 -44.5299 SD 30 1008 -2 9 90
1972307N35313 1972 121 NA NA DELTA 1972-11-05 18:00:00 SS 30.3000 -44.0000 30 hurdat_atl main 1979 1979 I_____________ hurdat_atl AL191972 30.3000 -44.0000 SD 30 1008 -2 9 90
1972307N35313 1972 121 NA NA DELTA 1972-11-05 21:00:00 SS 30.3002 -43.4625 main 1997 1997 P_____________ AL191972 30.3002 -43.4625 SD 27 1008 -2 9 90
1972307N35313 1972 121 NA NA DELTA 1972-11-06 00:00:00 SS 30.3000 -43.0000 25 1008 hurdat_atl main 2015 2015 O_____________ hurdat_atl AL191972 30.3000 -43.0000 SD 25 1008 -2 7 90
1972307N35313 1972 121 NA NA DELTA 1972-11-06 03:00:00 SS 30.2997 -42.7050 main 2026 2026 P_____________ AL191972 30.2997 -42.7050 SD 25 1008 -2 4 90
1972307N35313 1972 121 NA NA DELTA 1972-11-06 06:00:00 SS 30.3000 -42.5000 25 hurdat_atl main 2034 2034 I_____________ hurdat_atl AL191972 30.3000 -42.5000 SD 25 1009 -2 4 95
1972307N35313 1972 121 NA NA DELTA 1972-11-06 09:00:00 SS 30.2700 -42.2699 main 2042 2042 P_____________ AL191972 30.2700 -42.2699 SD 25 1009 -2 3 90
1972307N35313 1972 121 NA NA DELTA 1972-11-06 12:00:00 SS 30.3000 -42.1000 25 1010 hurdat_atl main 2050 2033 O_____________ hurdat_atl AL191972 30.3000 -42.1000 SD 25 1010 -2 3 46
1972307N35313 1972 121 NA NA DELTA 1972-11-06 15:00:00 SS 30.4775 -42.0200 main 2033 2013 P_____________ AL191972 30.4775 -42.0200 SD 25 1010 -2 4 12
1972307N35313 1972 121 NA NA DELTA 1972-11-06 18:00:00 SS 30.7000 -42.0000 25 hurdat_atl main 2013 1993 I_____________ hurdat_atl AL191972 30.7000 -42.0000 SD 25 1010 -2 4 6
1972307N35313 1972 121 NA NA DELTA 1972-11-06 21:00:00 SS 30.8650 -41.9850 main 1993 1983 P_____________ AL191972 30.8650 -41.9850 SD 25 1010 -2 3 0
1972307N35313 1972 121 NA NA DELTA 1972-11-07 00:00:00 SS 31.0000 -42.0000 25 1011 hurdat_atl main 1983 1973 O_____________ hurdat_atl AL191972 31.0000 -42.0000 SD 25 1011 -2 3 347
1972307N35313 1972 121 NA NA DELTA 1972-11-07 03:00:00 SS 31.1150 -42.0500 main 1973 1959 P_____________ AL191972 31.1150 -42.0500 SD 25 1011 -2 2 335
1972307N35313 1972 121 NA NA DELTA 1972-11-07 06:00:00 SS 31.2000 -42.1000 25 hurdat_atl main 1959 1959 I_____________ hurdat_atl AL191972 31.2000 -42.1000 SD 25 1011 -2 1 0
1972307N35313 1972 121 NA NA DELTA 1972-11-07 09:00:00 SS 31.1750 -42.0779 main 1959 1949 P_____________ AL191972 31.1750 -42.0779 SD 25 1011 -2 1 0
1972307N35313 1972 121 NA NA DELTA 1972-11-07 12:00:00 SS 31.3000 -42.1000 25 1011 hurdat_atl main 1949 1895 O_____________ hurdat_atl AL191972 31.3000 -42.1000 SD 25 1011 -2 6 346
1972307N35313 1972 121 NA NA DELTA 1972-11-07 15:00:00 SS 31.7877 -42.2562 main 1890 1812 P_____________ AL191972 31.7877 -42.2562 SD 25 -2 13 344
1972307N35313 1972 121 NA NA DELTA 1972-11-07 18:00:00 SS 32.5000 -42.5000 25 hurdat_atl main 1812 O_____________ hurdat_atl AL191972 32.5000 -42.5000 SD 25 -2 15 344

About IBTrACS Database

This database is a web-friendly format of International Best Track Archive for Climate Stewardship (IBTrACS), a global best track data archive curated by NOAA dating back to 1842.

Updated: 2021-11-26